createdAt,value
2018-07-19T00:01:58.350Z,57.87
2018-07-19T00:04:27.582Z,58.31
2018-07-19T00:06:56.738Z,58.89
2018-07-19T00:09:25.948Z,58.78
2018-07-19T00:11:55.326Z,59.31
2018-07-19T00:14:24.571Z,58.64
2018-07-19T00:16:53.968Z,58.19
2018-07-19T00:19:23.480Z,58.82
2018-07-19T00:21:52.642Z,57.45
2018-07-19T00:24:21.843Z,57.89
2018-07-19T00:26:50.986Z,57.09
2018-07-19T00:29:20.968Z,57.65
2018-07-19T00:31:50.635Z,57.61
2018-07-19T00:34:19.987Z,57.90
2018-07-19T00:36:49.154Z,57.64
2018-07-19T00:39:18.358Z,57.36
2018-07-19T00:41:47.521Z,58.00
2018-07-19T00:44:17.624Z,57.84
2018-07-19T00:46:47.162Z,57.84
2018-07-19T00:49:16.398Z,58.92
2018-07-19T00:51:45.574Z,57.71
2018-07-19T00:54:14.884Z,59.90
2018-07-19T00:56:44.071Z,58.68
2018-07-19T00:59:13.275Z,59.80
2018-07-19T01:01:42.487Z,60.28
2018-07-19T01:04:12.090Z,59.30
2018-07-19T01:06:41.258Z,58.89
2018-07-19T01:09:11.715Z,59.93
2018-07-19T01:11:40.914Z,59.21
2018-07-19T01:14:10.427Z,60.67
2018-07-19T01:16:39.606Z,60.23
2018-07-19T01:19:08.803Z,60.87
2018-07-19T01:21:37.997Z,61.45
2018-07-19T01:24:07.184Z,61.47
2018-07-19T01:26:36.391Z,60.75
2018-07-19T01:29:05.594Z,61.57
2018-07-19T01:31:34.792Z,61.42
2018-07-19T01:34:03.975Z,61.48
2018-07-19T01:36:33.562Z,61.08
2018-07-19T01:39:03.042Z,60.20
2018-07-19T01:41:43.114Z,60.33
2018-07-19T01:44:12.286Z,61.50
2018-07-19T01:46:41.458Z,61.09
2018-07-19T01:49:11.083Z,61.15
2018-07-19T01:51:40.256Z,61.43
2018-07-19T01:54:09.447Z,60.65
2018-07-19T01:56:38.598Z,60.81
2018-07-19T01:59:07.770Z,59.95
2018-07-19T02:01:36.942Z,61.03
2018-07-19T02:04:06.374Z,61.66
2018-07-19T02:06:36.206Z,62.70
2018-07-19T02:09:06.147Z,61.47
2018-07-19T02:11:35.593Z,62.45
2018-07-19T02:14:04.831Z,62.71
2018-07-19T02:16:34.314Z,63.02
2018-07-19T02:19:03.521Z,62.92
2018-07-19T02:21:32.699Z,63.41
2018-07-19T02:24:01.932Z,63.47
2018-07-19T02:26:31.094Z,64.28
2018-07-19T02:29:00.335Z,64.18
2018-07-19T02:31:29.615Z,63.94
2018-07-19T02:33:59.525Z,64.80
2018-07-19T02:36:28.999Z,65.15
2018-07-19T02:38:58.339Z,65.42
2018-07-19T02:41:28.230Z,65.29
2018-07-19T02:43:57.502Z,65.65
2018-07-19T02:46:26.627Z,65.59
2018-07-19T02:48:56.218Z,66.62
2018-07-19T02:51:25.434Z,67.00
2018-07-19T02:53:54.622Z,66.88
2018-07-19T02:56:24.135Z,66.87
2018-07-19T02:58:53.354Z,67.15
2018-07-19T03:01:22.526Z,67.22
2018-07-19T03:03:52.098Z,67.75
2018-07-19T03:06:21.274Z,67.96
2018-07-19T03:08:50.478Z,68.07
2018-07-19T03:11:19.646Z,68.26
2018-07-19T03:13:48.997Z,69.10
2018-07-19T03:16:18.166Z,69.45
2018-07-19T03:18:47.362Z,69.74
2018-07-19T03:21:16.575Z,69.60
2018-07-19T03:23:45.867Z,69.78
2018-07-19T03:26:15.160Z,70.51
2018-07-19T03:28:44.378Z,70.68
2018-07-19T03:31:13.536Z,70.37
2018-07-19T03:33:42.894Z,70.37
2018-07-19T03:36:12.419Z,70.37
2018-07-19T03:38:41.578Z,70.23
2018-07-19T03:41:10.787Z,70.26
2018-07-19T03:43:39.982Z,70.15
2018-07-19T03:46:09.375Z,70.62
2018-07-19T03:48:38.899Z,70.10
2018-07-19T03:51:08.187Z,69.83
2018-07-19T03:53:37.368Z,69.71
2018-07-19T03:56:06.614Z,69.54
2018-07-19T03:58:35.786Z,69.73
2018-07-19T04:01:05.647Z,69.50
2018-07-19T04:03:34.901Z,69.08
2018-07-19T04:06:04.586Z,69.51
2018-07-19T04:08:34.171Z,69.57
2018-07-19T04:11:03.402Z,69.87
2018-07-19T04:13:32.903Z,69.35
2018-07-19T04:16:02.143Z,68.13
2018-07-19T04:18:31.286Z,66.52
2018-07-19T04:21:00.484Z,65.23
2018-07-19T04:23:29.779Z,64.06
2018-07-19T04:25:58.983Z,63.54
2018-07-19T04:28:28.155Z,63.06
2018-07-19T04:30:57.727Z,62.53
2018-07-19T04:33:26.911Z,62.31
2018-07-19T04:35:56.071Z,62.26
2018-07-19T04:38:25.222Z,61.74
2018-07-19T04:40:54.410Z,61.19
2018-07-19T04:43:23.678Z,61.36
2018-07-19T04:45:52.940Z,61.41
2018-07-19T04:48:22.148Z,60.88
2018-07-19T04:50:51.406Z,60.60
2018-07-19T04:53:20.979Z,61.30
2018-07-19T04:55:50.447Z,60.94
2018-07-19T04:58:19.935Z,60.99
2018-07-19T05:00:49.340Z,61.00
2018-07-19T05:03:18.531Z,59.70
2018-07-19T05:05:48.003Z,60.31
2018-07-19T05:08:17.201Z,60.43
2018-07-19T05:10:46.546Z,59.16
2018-07-19T05:13:15.721Z,59.56
2018-07-19T05:15:44.911Z,59.82
2018-07-19T05:18:14.083Z,59.08
2018-07-19T05:20:43.448Z,59.98
2018-07-19T05:23:12.808Z,59.37
2018-07-19T05:25:41.931Z,58.71
2018-07-19T05:28:11.505Z,58.32
2018-07-19T05:30:40.742Z,58.13
2018-07-19T05:33:09.926Z,57.17
2018-07-19T05:35:39.087Z,57.43
2018-07-19T05:38:08.527Z,57.56
2018-07-19T05:40:37.765Z,57.10
2018-07-19T05:43:06.952Z,56.83
2018-07-19T05:45:36.124Z,55.88
2018-07-19T05:48:05.310Z,55.96
2018-07-19T05:50:34.510Z,55.05
2018-07-19T05:53:03.948Z,55.11
2018-07-19T05:55:33.124Z,55.33
2018-07-19T05:58:02.311Z,53.03
2018-07-19T06:00:31.539Z,53.73
2018-07-19T06:03:00.767Z,52.61
2018-07-19T06:05:29.977Z,49.82
2018-07-19T06:07:59.370Z,45.77
2018-07-19T06:10:28.818Z,44.31
2018-07-19T06:12:57.999Z,43.67
2018-07-19T06:15:27.887Z,41.34
2018-07-19T06:17:57.110Z,40.92
2018-07-19T06:20:26.269Z,41.37
2018-07-19T06:22:55.767Z,38.52
2018-07-19T06:25:24.967Z,39.99
2018-07-19T06:27:54.490Z,38.23
2018-07-19T06:30:23.739Z,36.89
2018-07-19T06:32:52.951Z,37.31
2018-07-19T06:35:22.525Z,36.56
2018-07-19T06:37:51.662Z,36.32
2018-07-19T06:40:20.842Z,34.76
2018-07-19T06:42:50.327Z,35.88
2018-07-19T06:45:19.518Z,34.13
2018-07-19T06:47:48.691Z,34.92
2018-07-19T06:50:18.014Z,35.89
2018-07-19T06:52:47.188Z,34.88
2018-07-19T06:55:16.506Z,33.98
2018-07-19T06:57:45.931Z,33.14
2018-07-19T07:00:15.331Z,32.99
2018-07-19T07:02:44.507Z,31.87
2018-07-19T07:05:14.323Z,31.42
2018-07-19T07:07:43.486Z,31.47
2018-07-19T07:10:12.993Z,33.69
2018-07-19T07:12:42.183Z,30.68
2018-07-19T07:15:11.374Z,30.59
2018-07-19T07:17:40.527Z,31.88
2018-07-19T07:20:09.907Z,30.22
2018-07-19T07:22:39.196Z,30.03
2018-07-19T07:25:08.379Z,30.14
2018-07-19T07:27:37.986Z,30.66
2018-07-19T07:30:07.182Z,29.17
2018-07-19T07:32:36.360Z,30.36
2018-07-19T07:35:06.356Z,29.82
2018-07-19T07:37:35.531Z,30.36
2018-07-19T07:40:05.598Z,29.70
2018-07-19T07:42:34.769Z,28.25
2018-07-19T07:45:03.958Z,28.62
2018-07-19T07:47:33.170Z,28.31
2018-07-19T07:50:02.499Z,26.91
2018-07-19T07:52:31.704Z,27.92
2018-07-19T07:55:00.880Z,27.67
2018-07-19T07:57:30.088Z,25.94
2018-07-19T07:59:59.326Z,28.77
2018-07-19T08:02:28.506Z,26.59
2018-07-19T08:04:57.669Z,27.41
2018-07-19T08:07:26.830Z,27.65
2018-07-19T08:09:55.983Z,28.67
2018-07-19T08:12:25.188Z,27.80
2018-07-19T08:14:54.379Z,27.37
2018-07-19T08:17:23.570Z,26.22
2018-07-19T08:19:52.718Z,24.93
2018-07-19T08:22:21.895Z,25.22
2018-07-19T08:24:51.072Z,24.17
2018-07-19T08:27:20.686Z,24.31
2018-07-19T08:29:49.890Z,27.09
2018-07-19T08:32:20.148Z,27.93
2018-07-19T08:34:49.323Z,24.17
2018-07-19T08:37:18.534Z,23.46
2018-07-19T08:39:47.695Z,22.50
2018-07-19T08:42:16.921Z,24.58
2018-07-19T08:44:46.711Z,24.34
2018-07-19T08:47:16.422Z,23.22
2018-07-19T08:49:46.955Z,26.20
2018-07-19T08:52:17.374Z,23.79
2018-07-19T08:54:46.566Z,23.93
2018-07-19T08:57:16.143Z,23.49
2018-07-19T08:59:45.268Z,22.42
2018-07-19T09:02:14.455Z,23.52
2018-07-19T09:04:43.606Z,21.81
2018-07-19T09:07:12.778Z,23.30
2018-07-19T09:09:41.926Z,24.33
2018-07-19T09:12:11.099Z,21.74
2018-07-19T09:14:40.298Z,21.93
2018-07-19T09:17:09.475Z,21.46
2018-07-19T09:19:38.691Z,24.14
2018-07-19T09:22:07.841Z,22.44
2018-07-19T09:24:36.979Z,21.10
2018-07-19T09:27:06.190Z,21.07
2018-07-19T09:29:35.354Z,19.96
2018-07-19T09:32:04.559Z,19.39
2018-07-19T09:34:33.701Z,20.20
2018-07-19T09:37:02.890Z,18.47
2018-07-19T09:39:32.044Z,19.07
2018-07-19T09:42:01.236Z,18.27
2018-07-19T09:44:30.383Z,17.16
2018-07-19T09:46:59.553Z,20.29
2018-07-19T09:49:29.106Z,20.63
2018-07-19T09:51:58.317Z,20.76
2018-07-19T09:54:38.824Z,19.88
2018-07-19T09:57:07.982Z,21.06
2018-07-19T09:59:37.139Z,20.98
2018-07-19T10:02:06.359Z,22.78
2018-07-19T10:04:35.671Z,23.00
2018-07-19T10:07:04.976Z,21.19
2018-07-19T10:09:34.268Z,20.73
2018-07-19T10:12:03.776Z,20.49
2018-07-19T10:14:33.195Z,20.28
2018-07-19T10:17:02.448Z,20.42
2018-07-19T10:19:31.851Z,18.14
2018-07-19T10:22:01.015Z,17.55
2018-07-19T10:24:30.179Z,17.24
2018-07-19T10:26:59.327Z,17.35
2018-07-19T10:29:28.511Z,18.33
2018-07-19T10:31:57.806Z,17.30
2018-07-19T10:34:26.934Z,15.47
2018-07-19T10:36:56.067Z,15.82
2018-07-19T10:39:25.239Z,14.49
2018-07-19T10:41:54.419Z,14.94
2018-07-19T10:44:23.614Z,16.65
2018-07-19T10:46:52.924Z,14.95
2018-07-19T10:49:22.985Z,15.45
2018-07-19T10:51:52.185Z,16.00
2018-07-19T10:54:21.362Z,15.49
2018-07-19T10:56:50.547Z,13.86
2018-07-19T10:59:19.802Z,14.14
2018-07-19T11:01:48.959Z,14.96
2018-07-19T11:04:18.147Z,16.57
2018-07-19T11:06:47.303Z,17.76
2018-07-19T11:09:16.495Z,19.95
2018-07-19T11:11:45.670Z,21.56
2018-07-19T11:14:14.834Z,21.98
2018-07-19T11:16:44.173Z,21.40
2018-07-19T11:19:13.338Z,20.99
2018-07-19T11:21:42.499Z,20.30
2018-07-19T11:24:11.690Z,20.46
2018-07-19T11:26:41.402Z,19.53
2018-07-19T11:29:10.607Z,19.63
2018-07-19T11:31:39.842Z,17.65
2018-07-19T11:34:09.051Z,16.48
2018-07-19T11:36:38.195Z,15.56
2018-07-19T11:39:08.139Z,15.37
2018-07-19T11:41:37.651Z,14.69
2018-07-19T11:44:07.559Z,15.01
2018-07-19T11:46:36.939Z,13.84
2018-07-19T11:49:06.224Z,14.79
2018-07-19T11:51:37.195Z,14.61
2018-07-19T11:54:06.359Z,14.55
2018-07-19T11:56:35.518Z,15.34
2018-07-19T11:59:04.922Z,16.73
2018-07-19T12:01:34.895Z,15.60
2018-07-19T12:04:04.088Z,17.41
2018-07-19T12:06:33.248Z,15.42
2018-07-19T12:09:02.497Z,15.54
2018-07-19T12:11:31.670Z,15.08
2018-07-19T12:14:00.835Z,16.25
2018-07-19T12:16:30.003Z,17.95
2018-07-19T12:18:59.474Z,19.13
2018-07-19T12:21:28.928Z,17.79
2018-07-19T12:23:58.431Z,16.87
2018-07-19T12:26:27.903Z,16.00
2018-07-19T12:28:57.195Z,15.42
2018-07-19T12:31:26.354Z,15.46
2018-07-19T12:33:55.530Z,15.86
2018-07-19T12:36:24.715Z,14.49
2018-07-19T12:38:53.891Z,13.60
2018-07-19T12:41:23.056Z,14.68
2018-07-19T12:43:52.452Z,15.87
2018-07-19T12:46:21.614Z,15.13
2018-07-19T12:48:50.800Z,18.44
2018-07-19T12:51:19.962Z,17.58
2018-07-19T12:53:49.639Z,16.87
2018-07-19T12:56:19.016Z,15.00
2018-07-19T12:58:48.203Z,13.86
2018-07-19T13:01:17.515Z,14.63
2018-07-19T13:03:46.692Z,15.02
2018-07-19T13:06:15.851Z,15.34
2018-07-19T13:08:45.024Z,15.71
2018-07-19T13:11:14.207Z,16.45
2018-07-19T13:13:43.479Z,16.46
2018-07-19T13:16:12.879Z,16.51
2018-07-19T13:18:42.059Z,17.48
2018-07-19T13:21:11.223Z,17.69
2018-07-19T13:23:40.432Z,15.96
2018-07-19T13:26:09.601Z,14.10
2018-07-19T13:28:38.918Z,15.85
2018-07-19T13:31:08.504Z,15.96
2018-07-19T13:33:37.807Z,15.61
2018-07-19T13:36:07.568Z,15.02
2018-07-19T13:38:36.748Z,15.90
2018-07-19T13:41:06.075Z,15.32
2018-07-19T13:43:35.282Z,15.47
2018-07-19T13:46:04.462Z,15.49
2018-07-19T13:48:33.631Z,15.67
2018-07-19T13:51:03.127Z,15.57
2018-07-19T13:53:43.626Z,15.75
2018-07-19T13:56:12.794Z,15.32
2018-07-19T13:58:41.939Z,16.28
2018-07-19T14:01:11.102Z,15.98
2018-07-19T14:03:40.256Z,18.29
2018-07-19T14:06:09.813Z,18.22
2018-07-19T14:08:38.976Z,16.84
2018-07-19T14:11:08.162Z,17.11
2018-07-19T14:13:37.324Z,17.47
2018-07-19T14:16:06.511Z,18.57
2018-07-19T14:18:35.719Z,19.01
2018-07-19T14:21:04.952Z,19.19
2018-07-19T14:23:34.122Z,19.60
2018-07-19T14:26:03.308Z,20.49
2018-07-19T14:28:32.710Z,22.49
2018-07-19T14:31:02.150Z,23.98
2018-07-19T14:33:31.315Z,24.71
2018-07-19T14:36:00.523Z,23.13
2018-07-19T14:38:30.036Z,22.94
2018-07-19T14:40:59.337Z,23.56
2018-07-19T14:43:28.487Z,23.15
2018-07-19T14:45:57.671Z,21.87
2018-07-19T14:48:26.840Z,22.28
2018-07-19T14:50:56.938Z,22.80
2018-07-19T14:53:26.088Z,22.39
2018-07-19T14:55:55.255Z,23.67
2018-07-19T14:58:24.741Z,23.87
2018-07-19T15:00:53.903Z,24.21
2018-07-19T15:03:24.274Z,23.47
2018-07-19T15:05:53.435Z,22.62
2018-07-19T15:08:22.595Z,21.91
2018-07-19T15:10:52.330Z,21.74
2018-07-19T15:13:21.523Z,22.61
2018-07-19T15:15:51.123Z,23.01
2018-07-19T15:18:20.294Z,22.35
2018-07-19T15:20:49.467Z,22.34
2018-07-19T15:23:18.608Z,23.20
2018-07-19T15:25:47.796Z,21.81
2018-07-19T15:28:17.315Z,23.10
2018-07-19T15:30:46.602Z,23.11
2018-07-19T15:33:15.801Z,21.51
2018-07-19T15:35:45.019Z,22.50
2018-07-19T15:38:15.003Z,23.32
2018-07-19T15:40:44.222Z,22.84
2018-07-19T15:43:13.640Z,22.91
2018-07-19T15:45:43.198Z,23.34
2018-07-19T15:48:12.423Z,24.27
2018-07-19T15:50:41.944Z,24.60
2018-07-19T15:53:11.096Z,25.18
2018-07-19T15:55:40.301Z,23.95
2018-07-19T15:58:09.456Z,24.59
2018-07-19T16:00:38.651Z,23.54
2018-07-19T16:03:08.211Z,23.48
2018-07-19T16:05:37.382Z,24.22
2018-07-19T16:08:06.539Z,23.08
2018-07-19T16:10:35.727Z,24.12
2018-07-19T16:13:05.305Z,24.24
2018-07-19T16:15:34.471Z,23.72
2018-07-19T16:18:03.627Z,24.34
2018-07-19T16:20:33.152Z,24.61
2018-07-19T16:23:02.406Z,25.85
2018-07-19T16:25:31.615Z,25.24
2018-07-19T16:28:00.809Z,25.96
2018-07-19T16:30:29.988Z,24.80
2018-07-19T16:32:59.144Z,25.37
2018-07-19T16:35:28.318Z,26.20
2018-07-19T16:37:57.501Z,25.27
2018-07-19T16:40:26.672Z,26.09
2018-07-19T16:42:56.234Z,26.77
2018-07-19T16:45:25.579Z,25.47
2018-07-19T16:47:54.779Z,25.73
2018-07-19T16:50:24.026Z,27.25
2018-07-19T16:52:53.263Z,28.81
2018-07-19T16:55:22.604Z,25.57
2018-07-19T16:57:51.795Z,27.80
2018-07-19T17:00:20.982Z,27.60
2018-07-19T17:02:50.176Z,26.72
2018-07-19T17:05:19.339Z,27.44
2018-07-19T17:07:48.822Z,28.06
2018-07-19T17:10:17.988Z,27.61
2018-07-19T17:12:47.446Z,27.01
2018-07-19T17:15:16.743Z,27.03
2018-07-19T17:17:45.911Z,28.69
2018-07-19T17:20:15.328Z,27.16
2018-07-19T17:22:44.587Z,28.75
2018-07-19T17:25:13.805Z,30.37
2018-07-19T17:27:44.149Z,29.37
2018-07-19T17:30:13.706Z,29.27
2018-07-19T17:32:42.992Z,30.71
2018-07-19T17:35:12.960Z,31.07
2018-07-19T17:37:42.366Z,30.85
2018-07-19T17:40:11.576Z,34.58
2018-07-19T17:42:40.960Z,34.61
2018-07-19T17:45:10.766Z,31.29
2018-07-19T17:47:41.229Z,31.17
2018-07-19T17:50:11.753Z,29.67
2018-07-19T17:52:44.163Z,29.99
2018-07-19T17:55:13.455Z,28.72
2018-07-19T17:57:42.671Z,29.35
2018-07-19T18:00:12.883Z,29.64
2018-07-19T18:02:42.339Z,29.87
2018-07-19T18:05:11.594Z,28.96
2018-07-19T18:07:42.290Z,29.32
2018-07-19T18:10:13.339Z,29.53
2018-07-19T18:12:43.795Z,29.68
2018-07-19T18:15:13.336Z,29.51
2018-07-19T18:17:42.688Z,30.72
2018-07-19T18:20:14.034Z,30.13
2018-07-19T18:22:43.627Z,30.00
2018-07-19T18:25:14.239Z,30.99
2018-07-19T18:27:44.187Z,31.83
2018-07-19T18:30:15.705Z,31.47
2018-07-19T18:32:45.831Z,31.40
2018-07-19T18:35:16.588Z,31.61
2018-07-19T18:37:47.131Z,32.66
2018-07-19T18:40:17.611Z,33.78
2018-07-19T18:42:46.991Z,33.80
2018-07-19T18:45:16.191Z,35.36
2018-07-19T18:47:45.388Z,36.35
2018-07-19T18:50:14.731Z,36.44
2018-07-19T18:52:43.989Z,36.13
2018-07-19T18:55:13.167Z,37.02
2018-07-19T18:57:42.362Z,36.33
2018-07-19T19:00:11.531Z,38.40
2018-07-19T19:02:40.823Z,38.76
2018-07-19T19:05:10.850Z,39.55
2018-07-19T19:07:40.030Z,40.25
2018-07-19T19:10:09.339Z,39.88
2018-07-19T19:12:38.780Z,40.45
2018-07-19T19:15:08.226Z,42.00
2018-07-19T19:17:37.435Z,42.26
2018-07-19T19:20:06.979Z,42.65
2018-07-19T19:22:36.273Z,43.39
2018-07-19T19:25:05.500Z,43.50
2018-07-19T19:27:34.985Z,44.80
2018-07-19T19:30:04.827Z,44.95
2018-07-19T19:32:35.014Z,45.14
2018-07-19T19:35:06.247Z,46.33
2018-07-19T19:37:36.580Z,46.19
2018-07-19T19:40:07.952Z,47.24
2018-07-19T19:42:38.174Z,47.39
2018-07-19T19:45:09.193Z,48.11
2018-07-19T19:47:39.676Z,48.78
2018-07-19T19:50:10.709Z,49.23
2018-07-19T19:52:41.152Z,50.04
2018-07-19T19:55:11.407Z,51.12
2018-07-19T19:57:41.659Z,51.57
2018-07-19T20:00:12.337Z,51.23
2018-07-19T20:02:41.827Z,51.49
2018-07-19T20:05:12.402Z,51.72
2018-07-19T20:07:42.961Z,52.45
2018-07-19T20:10:12.844Z,52.92
2018-07-19T20:12:43.243Z,53.44
2018-07-19T20:15:12.407Z,53.62
2018-07-19T20:17:41.622Z,53.74
2018-07-19T20:20:10.935Z,53.97
2018-07-19T20:22:40.158Z,53.86
2018-07-19T20:25:09.320Z,54.75
2018-07-19T20:27:38.492Z,53.69
2018-07-19T20:30:07.680Z,54.28
2018-07-19T20:32:36.875Z,54.30
2018-07-19T20:35:06.031Z,54.44
2018-07-19T20:37:35.340Z,54.78
2018-07-19T20:40:04.560Z,55.56
2018-07-19T20:42:33.955Z,55.94
2018-07-19T20:45:03.255Z,55.59
2018-07-19T20:47:32.451Z,56.33
2018-07-19T20:50:01.633Z,55.09
2018-07-19T20:52:30.839Z,56.44
2018-07-19T20:55:00.054Z,56.03
2018-07-19T20:57:29.278Z,56.83
2018-07-19T20:59:58.455Z,56.66
2018-07-19T21:02:27.640Z,57.19
2018-07-19T21:04:56.799Z,57.09
2018-07-19T21:07:25.964Z,56.88
2018-07-19T21:09:55.344Z,56.30
2018-07-19T21:12:24.519Z,57.07
2018-07-19T21:14:53.956Z,58.09
2018-07-19T21:17:23.106Z,57.64
2018-07-19T21:19:52.307Z,58.00
2018-07-19T21:22:21.470Z,57.41
2018-07-19T21:24:50.774Z,57.97
2018-07-19T21:27:19.927Z,58.98
2018-07-19T21:29:49.219Z,58.40
2018-07-19T21:32:18.491Z,58.23
2018-07-19T21:34:47.687Z,57.66
2018-07-19T21:37:16.854Z,58.44
2018-07-19T21:39:46.315Z,58.67
2018-07-19T21:42:15.553Z,58.94
2018-07-19T21:44:44.731Z,59.43
2018-07-19T21:47:13.950Z,58.77
2018-07-19T21:49:43.130Z,59.07
2018-07-19T21:52:12.289Z,59.61
2018-07-19T21:54:41.459Z,59.30
2018-07-19T21:57:10.607Z,59.23
2018-07-19T21:59:39.935Z,59.80
2018-07-19T22:02:09.264Z,59.46
2018-07-19T22:04:38.426Z,60.34
2018-07-19T22:07:07.579Z,60.85
2018-07-19T22:09:36.816Z,60.35
2018-07-19T22:12:06.015Z,60.14
2018-07-19T22:14:35.503Z,60.08
2018-07-19T22:17:05.043Z,59.58
2018-07-19T22:19:34.507Z,59.79
2018-07-19T22:22:03.928Z,59.22
2018-07-19T22:24:33.099Z,59.89
2018-07-19T22:27:02.466Z,60.42
2018-07-19T22:29:31.642Z,60.88
2018-07-19T22:32:00.807Z,60.51
2018-07-19T22:34:30.007Z,61.11
2018-07-19T22:36:59.179Z,60.85
2018-07-19T22:39:28.475Z,60.96
2018-07-19T22:41:57.646Z,61.61
2018-07-19T22:44:26.815Z,61.04
2018-07-19T22:46:56.778Z,61.23
2018-07-19T22:49:25.947Z,62.13
2018-07-19T22:51:55.588Z,62.03
2018-07-19T22:54:24.783Z,62.34
2018-07-19T22:56:53.959Z,62.64
2018-07-19T22:59:23.135Z,62.49
2018-07-19T23:01:52.468Z,63.12
2018-07-19T23:04:21.790Z,63.14
2018-07-19T23:06:50.942Z,63.75
2018-07-19T23:09:20.124Z,63.33
2018-07-19T23:11:49.447Z,62.74
2018-07-19T23:14:18.955Z,64.09
2018-07-19T23:16:48.116Z,63.93
2018-07-19T23:19:17.278Z,64.48
2018-07-19T23:21:46.456Z,64.59
2018-07-19T23:24:16.006Z,63.82
2018-07-19T23:26:45.183Z,64.15
2018-07-19T23:29:14.378Z,64.14
2018-07-19T23:31:44.954Z,63.79
2018-07-19T23:34:14.574Z,64.51
2018-07-19T23:37:48.986Z,64.77
2018-07-19T23:40:35.998Z,65.08
2018-07-19T23:43:26.211Z,65.15
2018-07-19T23:46:01.164Z,65.84
2018-07-19T23:48:30.343Z,65.80
2018-07-19T23:50:59.527Z,65.62
2018-07-19T23:53:28.698Z,65.55
2018-07-19T23:55:57.898Z,65.36
2018-07-19T23:58:27.403Z,65.86
